createdAt,value
2023-03-27T00:00:37.670Z,9.95
2023-03-27T00:01:39.383Z,9.95
2023-03-27T00:02:41.001Z,9.91
2023-03-27T00:03:42.883Z,9.90
2023-03-27T00:04:44.628Z,9.86
2023-03-27T00:05:46.351Z,9.87
2023-03-27T00:06:48.091Z,9.82
2023-03-27T00:07:52.899Z,9.77
2023-03-27T00:08:54.479Z,9.77
2023-03-27T00:09:56.199Z,9.76
2023-03-27T00:10:58.911Z,9.77
2023-03-27T00:12:00.457Z,9.76
2023-03-27T00:13:02.542Z,9.76
2023-03-27T00:14:04.123Z,9.64
2023-03-27T00:15:06.200Z,9.62
2023-03-27T00:16:08.224Z,9.64
2023-03-27T00:17:09.791Z,9.66
2023-03-27T00:18:11.740Z,9.70
2023-03-27T00:19:13.366Z,9.57
2023-03-27T00:20:20.650Z,9.56
2023-03-27T00:21:22.932Z,9.43
2023-03-27T00:22:24.515Z,9.34
2023-03-27T00:23:26.606Z,9.32
2023-03-27T00:24:28.155Z,9.22
2023-03-27T00:25:30.684Z,9.11
2023-03-27T00:26:32.333Z,9.00
2023-03-27T00:27:34.028Z,9.01
2023-03-27T00:28:36.037Z,8.90
2023-03-27T00:29:38.041Z,8.98
2023-03-27T00:30:39.611Z,9.04
2023-03-27T00:31:41.182Z,9.01
2023-03-27T00:32:42.969Z,9.06
2023-03-27T00:33:44.604Z,9.03
2023-03-27T00:34:46.211Z,9.11
2023-03-27T00:35:49.378Z,9.21
2023-03-27T00:36:50.960Z,9.25
2023-03-27T00:37:52.824Z,9.30
2023-03-27T00:38:54.801Z,9.30
2023-03-27T00:39:56.372Z,9.30
2023-03-27T00:40:58.308Z,9.32
2023-03-27T00:42:00.099Z,9.36
2023-03-27T00:43:01.654Z,9.40
2023-03-27T00:44:22.001Z,9.41
2023-03-27T00:45:26.903Z,9.39
2023-03-27T00:46:41.234Z,9.37
2023-03-27T00:47:43.442Z,9.39
2023-03-27T00:48:49.973Z,9.39
2023-03-27T00:49:52.427Z,9.44
2023-03-27T00:50:55.260Z,9.48
2023-03-27T00:51:58.219Z,9.47
2023-03-27T00:53:05.661Z,9.45
2023-03-27T00:54:08.202Z,9.42
2023-03-27T00:55:15.642Z,9.47
2023-03-27T00:56:17.899Z,9.48
2023-03-27T00:57:19.809Z,9.39
2023-03-27T00:58:27.369Z,9.40
2023-03-27T00:59:32.703Z,9.44
2023-03-27T01:00:34.689Z,9.40
2023-03-27T01:01:36.867Z,9.36
2023-03-27T01:02:42.804Z,9.42
2023-03-27T01:03:46.655Z,9.47
2023-03-27T01:04:50.134Z,9.47
2023-03-27T01:05:54.179Z,9.48
2023-03-27T01:06:56.191Z,9.47
2023-03-27T01:08:01.834Z,9.46
2023-03-27T01:09:05.218Z,9.49
2023-03-27T01:10:08.884Z,9.48
2023-03-27T01:11:16.054Z,9.47
2023-03-27T01:12:48.418Z,9.42
2023-03-27T01:14:04.957Z,9.31
2023-03-27T01:15:15.353Z,9.26
2023-03-27T01:16:31.678Z,9.26
2023-03-27T01:18:08.505Z,9.30
2023-03-27T01:19:28.422Z,9.33
2023-03-27T01:21:08.535Z,9.35
2023-03-27T01:22:34.510Z,9.35
2023-03-27T01:23:59.590Z,9.36
2023-03-27T01:25:41.877Z,9.34
2023-03-27T01:27:21.840Z,9.36
2023-03-27T01:28:42.401Z,9.35
2023-03-27T01:29:50.854Z,9.36
2023-03-27T01:31:05.927Z,9.40
2023-03-27T01:32:34.726Z,9.40
2023-03-27T01:33:54.406Z,9.37
2023-03-27T01:35:35.401Z,9.39
2023-03-27T01:36:55.526Z,9.39
2023-03-27T01:38:32.097Z,9.40
2023-03-27T01:40:02.979Z,9.38
2023-03-27T01:41:18.103Z,9.36
2023-03-27T01:42:25.586Z,9.34
2023-03-27T01:43:44.631Z,9.32
2023-03-27T01:45:08.292Z,9.35
2023-03-27T01:46:32.939Z,9.36
2023-03-27T01:47:41.419Z,9.38
2023-03-27T01:48:55.950Z,9.36
2023-03-27T01:50:14.892Z,9.28
2023-03-27T01:51:25.353Z,9.30
2023-03-27T01:52:31.921Z,9.27
2023-03-27T01:53:41.877Z,9.27
2023-03-27T01:54:48.567Z,9.23
2023-03-27T01:55:56.535Z,9.26
2023-03-27T01:57:07.394Z,9.26
2023-03-27T01:58:16.989Z,9.26
2023-03-27T01:59:20.924Z,9.28
2023-03-27T02:00:24.798Z,9.26
2023-03-27T02:01:42.031Z,9.29
2023-03-27T02:02:53.819Z,9.33
2023-03-27T02:04:00.118Z,9.30
2023-03-27T02:05:20.142Z,9.34
2023-03-27T02:06:32.639Z,9.34
2023-03-27T02:07:47.473Z,9.31
2023-03-27T02:08:57.917Z,9.32
2023-03-27T02:10:04.849Z,9.23
2023-03-27T02:11:07.212Z,9.24
2023-03-27T02:12:17.464Z,9.26
2023-03-27T02:13:28.100Z,9.28
2023-03-27T02:14:36.039Z,9.32
2023-03-27T02:15:42.824Z,9.31
2023-03-27T02:16:50.312Z,9.30
2023-03-27T02:18:04.225Z,9.25
2023-03-27T02:19:13.526Z,9.24
2023-03-27T02:20:16.360Z,9.22
2023-03-27T02:21:18.306Z,9.19
2023-03-27T02:22:20.578Z,9.09
2023-03-27T02:23:39.827Z,9.00
2023-03-27T02:24:42.326Z,8.90
2023-03-27T02:25:45.472Z,8.88
2023-03-27T02:26:54.136Z,8.84
2023-03-27T02:28:38.828Z,8.80
2023-03-27T02:30:08.469Z,8.76
2023-03-27T02:31:33.919Z,8.74
2023-03-27T02:33:06.042Z,8.68
2023-03-27T02:34:33.938Z,8.66
2023-03-27T02:35:58.471Z,8.57
2023-03-27T02:37:14.652Z,8.57
2023-03-27T02:38:53.226Z,8.55
2023-03-27T02:40:02.139Z,8.56
2023-03-27T02:41:14.474Z,8.51
2023-03-27T02:42:39.279Z,8.45
2023-03-27T02:43:54.479Z,8.40
2023-03-27T02:45:29.103Z,8.42
2023-03-27T02:46:42.856Z,8.38
2023-03-27T02:48:16.499Z,8.34
2023-03-27T02:49:26.748Z,8.34
2023-03-27T02:50:34.132Z,8.36
2023-03-27T02:51:50.617Z,8.42
2023-03-27T02:52:58.432Z,8.54
2023-03-27T02:54:05.230Z,8.61
2023-03-27T02:55:16.145Z,8.64
2023-03-27T02:56:20.296Z,8.64
2023-03-27T02:57:27.097Z,8.65
2023-03-27T02:59:18.100Z,8.60
2023-03-27T03:00:21.948Z,8.51
2023-03-27T03:01:29.121Z,8.50
2023-03-27T03:02:46.295Z,8.47
2023-03-27T03:03:57.741Z,8.44
2023-03-27T03:05:18.823Z,8.51
2023-03-27T03:06:23.825Z,8.37
2023-03-27T03:07:25.864Z,8.39
2023-03-27T03:08:27.487Z,8.42
2023-03-27T03:09:30.671Z,8.53
2023-03-27T03:10:32.296Z,8.57
2023-03-27T03:11:35.365Z,8.64
2023-03-27T03:12:37.586Z,8.53
2023-03-27T03:13:40.577Z,8.56
2023-03-27T03:14:43.422Z,8.43
2023-03-27T03:15:45.099Z,8.33
2023-03-27T03:16:47.349Z,8.24
2023-03-27T03:17:49.501Z,8.20
2023-03-27T03:18:51.166Z,8.20
2023-03-27T03:19:53.076Z,8.24
2023-03-27T03:20:55.691Z,8.28
2023-03-27T03:21:57.998Z,8.36
2023-03-27T03:22:59.564Z,8.45
2023-03-27T03:24:01.387Z,8.49
2023-03-27T03:25:03.088Z,8.46
2023-03-27T03:26:05.362Z,8.39
2023-03-27T03:27:17.575Z,8.30
2023-03-27T03:28:25.599Z,8.26
2023-03-27T03:29:27.176Z,8.24
2023-03-27T03:30:41.159Z,8.21
2023-03-27T03:31:45.964Z,8.07
2023-03-27T03:32:47.633Z,7.96
2023-03-27T03:33:49.620Z,7.75
2023-03-27T03:34:51.183Z,7.81
2023-03-27T03:35:52.750Z,7.85
2023-03-27T03:37:05.094Z,7.79
2023-03-27T03:38:06.663Z,7.83
2023-03-27T03:39:18.004Z,7.85
2023-03-27T03:40:22.493Z,7.88
2023-03-27T03:41:29.737Z,7.87
2023-03-27T03:42:34.839Z,7.70
2023-03-27T03:43:37.574Z,7.62
2023-03-27T03:44:39.416Z,7.71
2023-03-27T03:45:59.567Z,7.79
2023-03-27T03:47:01.267Z,7.70
2023-03-27T03:48:02.898Z,7.76
2023-03-27T03:49:05.238Z,7.77
2023-03-27T03:50:07.712Z,7.79
2023-03-27T03:51:09.597Z,7.83
2023-03-27T03:52:11.187Z,7.90
2023-03-27T03:53:14.295Z,7.93
2023-03-27T03:54:15.957Z,7.85
2023-03-27T03:55:18.730Z,7.83
2023-03-27T03:56:20.685Z,7.88
2023-03-27T03:57:24.015Z,7.93
2023-03-27T03:58:37.747Z,7.93
2023-03-27T03:59:40.127Z,7.86
2023-03-27T04:01:02.001Z,7.93
2023-03-27T04:02:15.072Z,8.01
2023-03-27T04:03:16.739Z,7.96
2023-03-27T04:04:18.400Z,7.99
2023-03-27T04:05:40.828Z,7.97
2023-03-27T04:06:42.378Z,7.96
2023-03-27T04:07:43.963Z,7.95
2023-03-27T04:09:17.810Z,7.86
2023-03-27T04:10:39.238Z,7.81
2023-03-27T04:11:47.889Z,7.80
2023-03-27T04:12:59.283Z,7.83
2023-03-27T04:14:06.687Z,7.80
2023-03-27T04:15:16.204Z,7.78
2023-03-27T04:16:35.713Z,7.68
2023-03-27T04:17:45.408Z,7.54
2023-03-27T04:18:47.175Z,7.54
2023-03-27T04:19:53.572Z,7.46
2023-03-27T04:20:55.628Z,7.42
2023-03-27T04:21:59.442Z,7.42
2023-03-27T04:23:05.217Z,7.40
2023-03-27T04:24:10.874Z,7.42
2023-03-27T04:25:19.748Z,7.38
2023-03-27T04:26:21.716Z,7.31
2023-03-27T04:28:01.890Z,7.26
2023-03-27T04:29:08.774Z,7.29
2023-03-27T04:30:28.653Z,7.29
2023-03-27T04:31:49.019Z,7.30
2023-03-27T04:33:16.957Z,7.36
2023-03-27T04:34:38.858Z,7.27
2023-03-27T04:36:06.541Z,7.30
2023-03-27T04:37:35.435Z,7.29
2023-03-27T04:38:52.821Z,7.17
2023-03-27T04:39:54.630Z,7.11
2023-03-27T04:40:56.570Z,7.21
2023-03-27T04:41:58.627Z,7.15
2023-03-27T04:43:02.233Z,7.20
2023-03-27T04:44:07.257Z,7.22
2023-03-27T04:45:19.038Z,7.20
2023-03-27T04:46:22.458Z,7.15
2023-03-27T04:47:29.124Z,7.22
2023-03-27T04:48:35.426Z,7.20
2023-03-27T04:49:46.304Z,7.19
2023-03-27T04:51:00.632Z,7.30
2023-03-27T04:52:09.820Z,7.36
2023-03-27T04:53:11.657Z,7.38
2023-03-27T04:54:22.579Z,7.29
2023-03-27T04:55:24.238Z,7.28
2023-03-27T04:56:25.823Z,7.26
2023-03-27T04:57:29.516Z,7.28
2023-03-27T04:58:36.684Z,7.38
2023-03-27T04:59:43.455Z,7.20
2023-03-27T05:01:05.616Z,7.25
2023-03-27T05:02:26.289Z,7.34
2023-03-27T05:03:37.574Z,7.42
2023-03-27T05:04:47.226Z,7.43
2023-03-27T05:05:52.560Z,7.26
2023-03-27T05:06:55.838Z,7.32
2023-03-27T05:07:57.632Z,7.28
2023-03-27T05:09:00.985Z,7.23
2023-03-27T05:10:10.197Z,7.21
2023-03-27T05:11:11.848Z,7.30
2023-03-27T05:12:16.646Z,7.32
2023-03-27T05:13:27.243Z,7.34
2023-03-27T05:14:28.899Z,7.35
2023-03-27T05:15:30.764Z,7.34
2023-03-27T05:16:33.524Z,7.29
2023-03-27T05:17:41.203Z,7.24
2023-03-27T05:18:44.171Z,7.17
2023-03-27T05:19:46.724Z,7.26
2023-03-27T05:20:48.818Z,7.22
2023-03-27T05:21:50.669Z,7.15
2023-03-27T05:22:53.824Z,7.14
2023-03-27T05:24:00.561Z,7.07
2023-03-27T05:25:02.256Z,7.07
2023-03-27T05:26:04.005Z,7.06
2023-03-27T05:27:20.566Z,7.09
2023-03-27T05:28:25.236Z,7.03
2023-03-27T05:29:26.863Z,7.00
2023-03-27T05:30:36.858Z,6.87
2023-03-27T05:31:50.073Z,6.81
2023-03-27T05:33:10.918Z,6.87
2023-03-27T05:34:12.497Z,6.85
2023-03-27T05:35:16.337Z,6.91
2023-03-27T05:36:19.458Z,7.00
2023-03-27T05:37:22.458Z,7.07
2023-03-27T05:38:50.569Z,7.02
2023-03-27T05:40:16.920Z,7.05
2023-03-27T05:41:18.547Z,7.14
2023-03-27T05:42:22.812Z,7.15
2023-03-27T05:43:24.496Z,7.19
2023-03-27T05:44:26.146Z,7.27
2023-03-27T05:45:28.252Z,7.16
2023-03-27T05:46:30.180Z,7.17
2023-03-27T05:47:46.489Z,7.17
2023-03-27T05:48:48.370Z,7.21
2023-03-27T05:49:50.114Z,7.17
2023-03-27T05:50:51.868Z,7.20
2023-03-27T05:51:57.805Z,7.24
2023-03-27T05:53:01.844Z,7.23
2023-03-27T05:54:08.981Z,7.19
2023-03-27T05:55:18.539Z,7.26
2023-03-27T05:56:20.312Z,7.27
2023-03-27T05:57:42.319Z,7.23
2023-03-27T05:58:44.428Z,7.28
2023-03-27T05:59:46.081Z,7.32
2023-03-27T06:00:58.674Z,7.32
2023-03-27T06:02:00.446Z,7.34
2023-03-27T06:03:14.615Z,7.29
2023-03-27T06:04:32.159Z,7.22
2023-03-27T06:05:40.853Z,7.30
2023-03-27T06:06:46.464Z,7.30
2023-03-27T06:07:48.780Z,7.35
2023-03-27T06:08:50.393Z,7.29
2023-03-27T06:09:52.255Z,7.33
2023-03-27T06:11:19.900Z,7.30
2023-03-27T06:12:23.189Z,7.33
2023-03-27T06:13:29.239Z,7.32
2023-03-27T06:14:40.294Z,7.28
2023-03-27T06:16:00.918Z,7.31
2023-03-27T06:17:36.126Z,7.25
2023-03-27T06:18:39.585Z,7.30
2023-03-27T06:19:41.541Z,7.22
2023-03-27T06:20:43.592Z,7.21
2023-03-27T06:21:45.319Z,7.18
2023-03-27T06:22:52.738Z,7.19
2023-03-27T06:23:57.883Z,7.27
2023-03-27T06:25:01.332Z,7.22
2023-03-27T06:26:05.327Z,7.30
2023-03-27T06:27:09.141Z,7.34
2023-03-27T06:28:12.257Z,7.38
2023-03-27T06:29:20.148Z,7.38
2023-03-27T06:30:25.887Z,7.41
2023-03-27T06:31:53.363Z,7.37
2023-03-27T06:33:01.377Z,7.43
2023-03-27T06:34:03.248Z,7.45
2023-03-27T06:35:18.711Z,7.39
2023-03-27T06:36:29.476Z,7.36
2023-03-27T06:37:31.446Z,7.34
2023-03-27T06:38:33.137Z,7.32
2023-03-27T06:39:35.948Z,7.38
2023-03-27T06:40:37.780Z,7.35
2023-03-27T06:41:39.392Z,7.38
2023-03-27T06:42:54.991Z,7.48
2023-03-27T06:44:05.290Z,7.45
2023-03-27T06:45:45.004Z,7.41
2023-03-27T06:47:05.529Z,7.38
2023-03-27T06:48:20.569Z,7.37
2023-03-27T06:49:24.697Z,7.25
2023-03-27T06:50:28.272Z,7.31
2023-03-27T06:51:32.982Z,7.32
2023-03-27T06:52:34.902Z,7.16
2023-03-27T06:53:50.363Z,7.26
2023-03-27T06:54:53.264Z,7.25
2023-03-27T06:55:55.817Z,7.34
2023-03-27T06:56:58.971Z,7.32
2023-03-27T06:58:01.967Z,7.32
2023-03-27T06:59:03.809Z,7.37
2023-03-27T07:00:06.785Z,7.33
2023-03-27T07:01:31.311Z,7.30
2023-03-27T07:02:57.108Z,7.36
2023-03-27T07:04:21.385Z,7.36
2023-03-27T07:05:34.538Z,7.52
2023-03-27T07:06:37.371Z,7.45
2023-03-27T07:07:44.208Z,7.47
2023-03-27T07:08:47.732Z,7.41
2023-03-27T07:09:50.640Z,7.48
2023-03-27T07:11:10.894Z,7.50
2023-03-27T07:12:19.266Z,7.50
2023-03-27T07:13:22.484Z,7.49
2023-03-27T07:14:24.278Z,7.39
2023-03-27T07:15:26.369Z,7.37
2023-03-27T07:16:29.277Z,7.31
2023-03-27T07:17:47.678Z,7.29
2023-03-27T07:18:50.912Z,7.30
2023-03-27T07:19:52.885Z,7.25
2023-03-27T07:20:59.126Z,7.24
2023-03-27T07:22:02.222Z,7.26
2023-03-27T07:23:06.982Z,7.11
2023-03-27T07:24:28.734Z,7.29
2023-03-27T07:25:33.757Z,7.31
2023-03-27T07:26:35.555Z,7.29
2023-03-27T07:27:44.427Z,7.28
2023-03-27T07:28:47.045Z,7.21
2023-03-27T07:29:49.103Z,7.10
2023-03-27T07:30:56.846Z,6.97
2023-03-27T07:32:01.562Z,7.00
2023-03-27T07:33:16.933Z,6.97
2023-03-27T07:34:18.993Z,6.89
2023-03-27T07:35:45.508Z,6.25
2023-03-27T07:37:19.372Z,5.27
2023-03-27T07:38:40.979Z,4.50
2023-03-27T07:39:55.078Z,3.62
2023-03-27T07:40:59.833Z,3.18
2023-03-27T07:42:04.481Z,2.95
2023-03-27T07:43:24.129Z,2.75
2023-03-27T07:44:25.791Z,2.58
2023-03-27T07:45:45.021Z,2.37
2023-03-27T07:46:47.362Z,2.30
2023-03-27T07:47:49.057Z,2.33
2023-03-27T07:48:50.730Z,2.26
2023-03-27T07:49:55.711Z,2.33
2023-03-27T07:52:03.492Z,2.21
2023-03-27T07:53:09.890Z,2.04
2023-03-27T07:54:33.669Z,2.08
2023-03-27T07:55:35.304Z,2.04
2023-03-27T07:56:40.663Z,2.05
2023-03-27T07:58:17.801Z,2.00
2023-03-27T07:59:19.527Z,2.05
2023-03-27T08:00:22.267Z,2.08
2023-03-27T08:01:35.620Z,2.06
2023-03-27T08:02:41.238Z,1.88
2023-03-27T08:03:43.261Z,1.95
2023-03-27T08:04:46.581Z,1.95
2023-03-27T08:05:57.409Z,2.01
2023-03-27T08:07:00.630Z,1.98
2023-03-27T08:08:02.311Z,1.90
2023-03-27T08:09:22.155Z,1.83
2023-03-27T08:10:24.036Z,1.94
2023-03-27T08:11:32.181Z,1.98
2023-03-27T08:12:35.508Z,2.04
2023-03-27T08:13:37.856Z,1.91
2023-03-27T08:14:41.570Z,1.85
2023-03-27T08:16:07.680Z,1.89
2023-03-27T08:17:15.626Z,1.85
2023-03-27T08:18:17.973Z,1.61
2023-03-27T08:19:19.937Z,1.63
2023-03-27T08:20:25.629Z,1.64
2023-03-27T08:21:30.462Z,1.54
2023-03-27T08:22:32.135Z,1.38
2023-03-27T08:24:12.195Z,1.26
2023-03-27T08:25:52.597Z,1.33
2023-03-27T08:26:58.305Z,1.30
2023-03-27T08:28:03.690Z,1.09
2023-03-27T08:29:05.941Z,0.91
2023-03-27T08:30:09.632Z,0.92
2023-03-27T08:31:16.199Z,0.87
2023-03-27T08:32:19.318Z,0.86
2023-03-27T08:33:23.771Z,0.86
2023-03-27T08:34:26.010Z,0.79
2023-03-27T08:35:27.689Z,0.83
2023-03-27T08:36:29.972Z,0.72
2023-03-27T08:37:32.152Z,0.58
2023-03-27T08:38:52.329Z,0.55
2023-03-27T08:39:57.098Z,0.55
2023-03-27T08:41:00.649Z,0.49
2023-03-27T08:42:17.842Z,0.32
2023-03-27T08:43:48.044Z,0.40
2023-03-27T12:55:36.219Z,3.12
2023-03-27T12:57:00.535Z,3.09
2023-03-27T12:58:05.495Z,3.01
2023-03-27T12:59:29.032Z,3.06
2023-03-27T13:00:32.069Z,3.11
2023-03-27T13:01:52.971Z,3.07
2023-03-27T13:03:13.501Z,2.91
2023-03-27T13:04:33.877Z,3.00
2023-03-27T13:05:55.757Z,2.95
2023-03-27T13:07:16.785Z,2.93
2023-03-27T13:08:54.845Z,3.02
2023-03-27T13:10:42.562Z,2.92
2023-03-27T13:11:49.344Z,2.91
2023-03-27T13:13:47.878Z,2.96
2023-03-27T13:15:08.957Z,3.12
2023-03-27T13:16:43.633Z,3.12
2023-03-27T13:18:22.132Z,3.20
2023-03-27T13:19:57.424Z,2.98
2023-03-27T13:21:19.196Z,3.19
2023-03-27T13:22:33.175Z,3.14
2023-03-27T13:24:09.061Z,3.02
2023-03-27T13:25:36.822Z,3.15
2023-03-27T13:27:00.339Z,3.12
2023-03-27T13:28:08.057Z,3.16
2023-03-27T13:29:23.082Z,3.18
2023-03-27T13:30:53.014Z,3.23
2023-03-27T13:32:34.592Z,3.22
2023-03-27T13:34:26.800Z,3.33
2023-03-27T13:35:39.964Z,3.32
2023-03-27T13:36:46.985Z,3.37
2023-03-27T13:37:55.790Z,3.36
2023-03-27T13:39:14.132Z,3.36
2023-03-27T13:40:33.320Z,3.34
2023-03-27T13:42:02.414Z,3.49
2023-03-27T13:43:26.657Z,3.41
2023-03-27T13:44:40.466Z,3.48
2023-03-27T13:45:47.482Z,3.46
2023-03-27T13:47:32.259Z,3.44
2023-03-27T13:48:46.159Z,3.51
2023-03-27T13:49:56.999Z,3.53
2023-03-27T13:51:10.534Z,3.54
2023-03-27T13:52:53.489Z,3.54
2023-03-27T13:54:33.467Z,3.51
2023-03-27T13:55:55.065Z,3.49
2023-03-27T13:58:12.420Z,3.53
2023-03-27T13:59:14.099Z,3.60
2023-03-27T14:00:45.386Z,3.59
2023-03-27T14:01:51.434Z,3.65
2023-03-27T14:03:39.064Z,3.58
2023-03-27T14:05:10.238Z,3.55
2023-03-27T14:06:29.230Z,3.61
2023-03-27T14:07:53.612Z,3.55
2023-03-27T14:09:11.463Z,3.49
2023-03-27T14:10:46.800Z,3.68
2023-03-27T14:12:06.630Z,3.68
2023-03-27T14:13:47.753Z,3.79
2023-03-27T14:15:26.065Z,3.97
2023-03-27T14:17:24.690Z,3.93
2023-03-27T14:18:51.658Z,4.01
2023-03-27T14:20:18.463Z,4.10
2023-03-27T14:21:31.874Z,4.02
2023-03-27T14:22:50.449Z,4.14
2023-03-27T14:24:06.149Z,3.91
2023-03-27T14:25:31.976Z,4.01
2023-03-27T14:26:44.584Z,3.80
2023-03-27T14:27:54.381Z,3.83
2023-03-27T14:29:00.060Z,3.80
2023-03-27T14:30:22.607Z,3.87
2023-03-27T14:31:42.500Z,3.77
2023-03-27T14:32:50.214Z,3.65
2023-03-27T14:33:59.768Z,3.76
2023-03-27T14:35:02.519Z,3.85
2023-03-27T14:36:13.198Z,3.86
2023-03-27T14:37:27.278Z,3.83
2023-03-27T14:38:34.322Z,3.84
2023-03-27T14:39:37.644Z,3.83
2023-03-27T14:40:47.102Z,3.89
2023-03-27T14:41:55.372Z,3.73
2023-03-27T14:42:59.850Z,3.74
2023-03-27T14:44:02.395Z,3.71
2023-03-27T14:45:21.002Z,3.68
2023-03-27T14:46:25.232Z,3.72
2023-03-27T14:47:28.963Z,3.75
2023-03-27T14:48:39.964Z,3.83
2023-03-27T14:49:47.553Z,3.88
2023-03-27T14:50:57.912Z,4.00
2023-03-27T14:52:02.748Z,4.08
2023-03-27T14:53:27.375Z,4.27
2023-03-27T14:54:54.786Z,4.25
2023-03-27T14:56:04.009Z,4.21
2023-03-27T14:57:28.367Z,4.18
2023-03-27T14:58:36.351Z,4.26
2023-03-27T14:59:42.432Z,4.21
2023-03-27T15:00:53.285Z,4.28
2023-03-27T15:01:58.912Z,4.32
2023-03-27T15:03:07.796Z,4.31
2023-03-27T15:04:11.677Z,4.21
2023-03-27T15:05:19.007Z,4.18
2023-03-27T15:06:26.343Z,4.27
2023-03-27T15:07:35.995Z,4.24
2023-03-27T15:08:50.247Z,4.31
2023-03-27T15:10:07.798Z,4.34
2023-03-27T15:11:37.963Z,4.37
2023-03-27T15:12:51.425Z,4.46
2023-03-27T15:13:53.046Z,4.47
2023-03-27T15:15:03.549Z,4.44
2023-03-27T15:16:06.498Z,4.44
2023-03-27T15:17:13.446Z,4.54
2023-03-27T15:18:32.213Z,4.67
2023-03-27T15:19:41.264Z,4.48
2023-03-27T15:23:43.933Z,4.54
2023-03-27T15:25:03.013Z,4.56
2023-03-27T15:26:20.987Z,4.59
2023-03-27T15:27:28.456Z,4.69
2023-03-27T15:28:42.194Z,4.79
2023-03-27T15:29:50.315Z,4.90
2023-03-27T15:30:56.200Z,4.73
2023-03-27T15:31:58.711Z,4.74
2023-03-27T15:33:02.137Z,4.79
2023-03-27T15:34:28.908Z,4.73
2023-03-27T15:35:53.648Z,4.89
2023-03-27T15:36:59.963Z,4.88
2023-03-27T15:38:04.247Z,4.89
2023-03-27T15:39:06.425Z,4.91
2023-03-27T15:40:10.928Z,4.88
2023-03-27T15:41:15.466Z,4.69
2023-03-27T15:42:20.358Z,4.47
2023-03-27T15:43:24.075Z,4.48
2023-03-27T15:44:30.530Z,4.51
2023-03-27T15:45:39.565Z,4.55
2023-03-27T15:46:49.121Z,4.50
2023-03-27T15:48:06.118Z,4.50
2023-03-27T15:49:21.357Z,4.30
2023-03-27T15:50:23.373Z,4.22
2023-03-27T15:51:30.010Z,4.31
2023-03-27T15:52:33.881Z,4.35
2023-03-27T15:53:37.215Z,4.38
2023-03-27T15:54:53.397Z,4.33
2023-03-27T15:55:55.473Z,4.28
2023-03-27T15:57:10.004Z,4.29
2023-03-27T15:58:42.204Z,4.28
2023-03-27T15:59:52.577Z,4.31
2023-03-27T16:01:01.097Z,4.35
2023-03-27T16:02:10.715Z,4.44
2023-03-27T16:03:18.392Z,4.45
2023-03-27T16:04:25.949Z,4.46
2023-03-27T16:05:27.681Z,4.46
2023-03-27T16:06:50.253Z,4.55
2023-03-27T16:07:52.002Z,4.57
2023-03-27T16:08:54.803Z,4.62
2023-03-27T16:10:01.576Z,4.71
2023-03-27T16:11:04.925Z,4.68
2023-03-27T16:12:06.633Z,4.57
2023-03-27T16:13:25.512Z,4.59
2023-03-27T16:14:49.016Z,4.60
2023-03-27T16:15:57.504Z,4.65
2023-03-27T16:17:09.965Z,4.66
2023-03-27T16:18:35.437Z,4.45
2023-03-27T16:20:13.512Z,4.41
2023-03-27T16:21:15.363Z,4.38
2023-03-27T16:22:24.075Z,4.31
2023-03-27T16:23:26.002Z,4.08
2023-03-27T16:24:51.401Z,3.99
2023-03-27T16:26:00.780Z,4.03
2023-03-27T16:27:02.368Z,4.13
2023-03-27T16:28:08.856Z,4.19
2023-03-27T16:29:11.399Z,4.14
2023-03-27T16:30:34.265Z,4.16
2023-03-27T16:31:35.997Z,4.13
2023-03-27T16:32:37.606Z,3.96
2023-03-27T16:33:39.460Z,3.96
2023-03-27T16:34:41.027Z,3.96
2023-03-27T16:35:42.734Z,3.88
2023-03-27T16:36:44.526Z,3.93
2023-03-27T16:37:46.227Z,3.90
2023-03-27T16:38:47.773Z,3.89
2023-03-27T16:39:49.832Z,3.86
2023-03-27T16:40:51.632Z,3.78
2023-03-27T16:41:53.260Z,3.89
2023-03-27T16:42:54.819Z,3.98
2023-03-27T16:43:56.397Z,3.96
2023-03-27T16:44:58.050Z,4.04
2023-03-27T16:45:59.933Z,4.04
2023-03-27T16:47:01.744Z,4.01
2023-03-27T16:48:04.205Z,4.05
2023-03-27T16:49:05.758Z,3.92
2023-03-27T16:50:11.671Z,3.88
2023-03-27T16:51:13.611Z,3.91
2023-03-27T16:52:15.202Z,3.87
2023-03-27T16:53:16.779Z,3.88
2023-03-27T16:54:18.367Z,3.82
2023-03-27T16:55:20.114Z,3.84
2023-03-27T16:56:21.841Z,3.93
2023-03-27T16:57:23.442Z,3.93
2023-03-27T16:58:25.095Z,3.77
2023-03-27T16:59:26.719Z,3.82
2023-03-27T17:00:28.306Z,3.81
2023-03-27T17:01:30.052Z,3.73
2023-03-27T17:02:34.685Z,3.75
2023-03-27T17:03:37.013Z,3.84
2023-03-27T17:04:39.457Z,3.83
2023-03-27T17:05:41.064Z,3.84
2023-03-27T17:06:42.644Z,3.93
2023-03-27T17:07:44.210Z,3.95
2023-03-27T17:08:46.010Z,3.96
2023-03-27T17:09:47.664Z,3.94
2023-03-27T17:10:49.405Z,3.92
2023-03-27T17:11:50.977Z,3.86
2023-03-27T17:12:53.551Z,3.93
2023-03-27T17:13:55.122Z,3.80
2023-03-27T17:14:56.755Z,3.70
2023-03-27T17:15:58.500Z,3.68
2023-03-27T17:17:00.244Z,3.64
2023-03-27T17:18:01.892Z,3.65
2023-03-27T17:19:03.732Z,3.60
2023-03-27T17:20:06.292Z,3.59
2023-03-27T17:21:08.415Z,3.61
2023-03-27T17:22:12.972Z,3.44
2023-03-27T17:23:14.592Z,3.42
2023-03-27T17:24:16.157Z,3.45
2023-03-27T17:25:17.932Z,3.46
2023-03-27T17:26:33.927Z,3.48
2023-03-27T17:27:35.490Z,3.48
2023-03-27T17:28:37.229Z,3.49
2023-03-27T17:29:38.851Z,3.51
2023-03-27T17:30:56.556Z,3.51
2023-03-27T17:31:58.661Z,3.58
2023-03-27T17:33:00.877Z,3.66
2023-03-27T17:34:02.647Z,3.59
2023-03-27T17:35:05.516Z,3.61
2023-03-27T17:36:09.018Z,3.53
2023-03-27T17:37:10.668Z,3.56
2023-03-27T17:38:12.211Z,3.50
2023-03-27T17:39:13.896Z,3.56
2023-03-27T17:40:15.592Z,3.57
2023-03-27T17:41:17.158Z,3.32
2023-03-27T17:42:18.742Z,3.37
2023-03-27T17:43:20.324Z,3.38
2023-03-27T17:44:21.921Z,3.41
2023-03-27T17:45:23.514Z,3.31
2023-03-27T17:46:25.232Z,3.28
2023-03-27T17:47:27.476Z,3.34
2023-03-27T17:48:29.084Z,3.31
2023-03-27T17:49:30.669Z,3.23
2023-03-27T17:50:32.427Z,3.19
2023-03-27T17:51:34.010Z,3.22
2023-03-27T17:52:35.561Z,3.26
2023-03-27T17:53:38.618Z,3.28
2023-03-27T17:54:40.240Z,3.22
2023-03-27T17:55:42.124Z,3.18
2023-03-27T17:56:43.713Z,3.05
2023-03-27T17:57:47.497Z,3.01
2023-03-27T17:58:52.681Z,3.08
2023-03-27T17:59:54.235Z,3.15
2023-03-27T18:00:56.026Z,3.21
2023-03-27T18:01:58.471Z,3.25
2023-03-27T18:03:00.201Z,3.25
2023-03-27T18:04:01.994Z,3.18
2023-03-27T18:05:04.049Z,3.11
2023-03-27T18:06:05.933Z,3.22
2023-03-27T18:07:07.509Z,3.28
2023-03-27T18:08:11.731Z,3.21
2023-03-27T18:09:13.615Z,3.25
2023-03-27T18:10:15.199Z,3.23
2023-03-27T18:11:16.808Z,3.11
2023-03-27T18:12:18.534Z,3.14
2023-03-27T18:13:21.042Z,3.07
2023-03-27T18:14:24.215Z,3.05
2023-03-27T18:15:27.381Z,3.01
2023-03-27T18:16:31.466Z,3.04
2023-03-27T18:17:35.018Z,3.09
2023-03-27T18:18:39.832Z,2.92
2023-03-27T18:19:42.774Z,2.95
2023-03-27T18:20:53.247Z,3.01
2023-03-27T18:21:54.832Z,3.05
2023-03-27T18:22:56.379Z,3.01
2023-03-27T18:23:58.090Z,3.01
2023-03-27T18:24:59.663Z,3.05
2023-03-27T18:26:06.116Z,3.08
2023-03-27T18:27:07.883Z,3.02
2023-03-27T18:28:15.139Z,3.08
2023-03-27T18:29:16.694Z,3.07
2023-03-27T18:30:18.696Z,3.07
2023-03-27T18:31:20.299Z,3.06
2023-03-27T18:32:21.957Z,2.91
2023-03-27T18:33:23.552Z,2.85
2023-03-27T18:34:25.149Z,2.92
2023-03-27T18:35:26.722Z,2.97
2023-03-27T18:36:28.516Z,2.80
2023-03-27T18:37:30.062Z,2.73
2023-03-27T18:38:31.624Z,2.76
2023-03-27T18:39:33.239Z,2.76
2023-03-27T18:40:34.796Z,2.73
2023-03-27T18:46:01.167Z,2.95
2023-03-27T18:47:03.139Z,2.97
2023-03-27T18:48:04.790Z,2.81
2023-03-27T18:49:17.569Z,2.75
2023-03-27T18:50:25.624Z,2.85
2023-03-27T18:51:27.415Z,2.94
2023-03-27T18:52:28.982Z,3.00
2023-03-27T18:53:30.830Z,2.97
2023-03-27T18:54:32.413Z,3.01
2023-03-27T18:55:33.937Z,3.07
2023-03-27T18:56:35.502Z,3.01
2023-03-27T18:57:37.485Z,3.05
2023-03-27T18:58:39.052Z,3.03
2023-03-27T18:59:40.677Z,3.03
2023-03-27T19:00:43.071Z,3.09
2023-03-27T19:01:44.635Z,3.13
2023-03-27T19:02:47.669Z,3.17
2023-03-27T19:03:51.254Z,3.13
2023-03-27T19:04:53.412Z,3.16
2023-03-27T19:05:59.428Z,3.22
2023-03-27T19:07:01.211Z,3.25
2023-03-27T19:08:03.450Z,3.25
2023-03-27T19:09:05.052Z,3.22
2023-03-27T19:10:07.237Z,3.26
2023-03-27T19:11:10.902Z,3.25
2023-03-27T19:12:31.037Z,3.25
2023-03-27T19:13:51.286Z,3.14
2023-03-27T19:15:19.427Z,3.12
2023-03-27T19:16:47.845Z,3.21
2023-03-27T19:18:24.497Z,3.11
2023-03-27T19:19:46.354Z,3.09
2023-03-27T19:21:05.489Z,3.04
2023-03-27T19:22:25.359Z,3.08
2023-03-27T19:23:40.905Z,3.13
2023-03-27T19:24:42.840Z,3.13
2023-03-27T19:25:51.030Z,3.11
2023-03-27T19:26:52.832Z,3.08
2023-03-27T19:27:54.922Z,2.98
2023-03-27T19:28:56.755Z,2.95
2023-03-27T19:29:58.285Z,2.97
2023-03-27T19:31:11.895Z,2.90
2023-03-27T19:32:13.500Z,2.91
2023-03-27T19:33:15.068Z,3.00
2023-03-27T19:34:16.757Z,2.97
2023-03-27T19:35:18.356Z,2.93
2023-03-27T19:36:19.919Z,2.89
2023-03-27T19:37:21.549Z,2.90
2023-03-27T19:38:23.180Z,2.95
2023-03-27T19:39:26.149Z,2.86
2023-03-27T19:40:27.710Z,2.82
2023-03-27T19:41:29.453Z,2.80